Main page
METAR-TAF:

METAR-TAF

Airports :

Saurimo Airport

Saurimo, Angola

latitude: 9-41-20S, longitude: 20-25-55E, elevation: 1092 m

Current weather observation

The report was made 17 hours and 20 minutes ago, at 12:00 UTC
Wind 5 kt from the East
Temperature 32°C
Humidity 43%
Pressure 1018 hPa
Visibility 10 km or more
Scattered clouds at a height of 2700 ft

METAR: FNSA 191200Z 09005KT 9999 SCT027 32/18 Q1018

Time: 06:20 (05:20 UTC)

Forecast

The report was made 6 hours and 20 minutes ago, at 23:00 UTC
Forecast valid from 20 at 00 UTC to 20 at 12 UTC
Wind 5 kt from the East/Southeast
Visibility 10 km or more
Scattered clouds at a height of 2300 ft

TAF: FNSA 192300Z 2000/2012 11005KT 9999 SCT023

Weather observations and forecasts of more than 4000 airports (METAR and TAF reports).

The available stations are represented by yellow and red dots on the map.

Hover mouse over dot to see the name of the station.

Then click to see weather observations and forecasts.

To change the map : click on the green buttons with a black cross to zoom in, on the green button with a dash to zoom out, or on the green arrows for adjacent maps.


METAR-TAF: